createdAt,value
2023-04-06T00:01:47.872Z,77.41
2023-04-06T00:06:49.407Z,76.91
2023-04-06T00:11:51.032Z,77.37
2023-04-06T00:16:52.542Z,77.24
2023-04-06T00:21:54.074Z,77.08
2023-04-06T00:26:56.147Z,77.16
2023-04-06T00:31:57.617Z,76.95
2023-04-06T00:36:59.058Z,77.03
2023-04-06T00:42:01.480Z,77.22
2023-04-06T00:47:03.026Z,76.69
2023-04-06T00:52:04.626Z,77.84
2023-04-06T00:57:06.466Z,77.83
2023-04-06T01:02:08.992Z,78.28
2023-04-06T01:07:11.042Z,78.91
2023-04-06T01:12:12.503Z,79.13
2023-04-06T01:17:14.085Z,79.10
2023-04-06T01:22:17.590Z,78.88
2023-04-06T01:27:19.103Z,78.48
2023-04-06T01:32:20.559Z,78.51
2023-04-06T01:37:21.981Z,78.68
2023-04-06T01:42:23.472Z,78.79
2023-04-06T01:47:24.963Z,78.33
2023-04-06T01:52:26.686Z,78.11
2023-04-06T01:57:28.474Z,77.70
2023-04-06T02:02:29.985Z,77.85
2023-04-06T02:07:31.654Z,77.53
2023-04-06T02:12:33.140Z,77.50
2023-04-06T02:17:34.655Z,77.73
2023-04-06T02:22:36.664Z,77.41
2023-04-06T02:27:38.206Z,77.70
2023-04-06T02:32:39.731Z,77.49
2023-04-06T02:37:41.246Z,77.43
2023-04-06T02:42:42.676Z,77.74
2023-04-06T02:47:44.132Z,77.56
2023-04-06T02:52:45.621Z,78.01
2023-04-06T02:57:47.201Z,77.92
2023-04-06T03:02:48.687Z,78.18
2023-04-06T03:07:50.228Z,78.74
2023-04-06T03:12:51.669Z,78.20
2023-04-06T03:17:53.093Z,78.55
2023-04-06T03:22:54.554Z,78.04
2023-04-06T03:27:55.994Z,77.76
2023-04-06T03:32:57.399Z,77.44
2023-04-06T03:37:58.811Z,77.87
2023-04-06T03:43:00.413Z,78.28
2023-04-06T03:48:01.917Z,77.55
2023-04-06T03:53:06.048Z,77.59
2023-04-06T03:58:07.729Z,77.90
2023-04-06T04:03:09.242Z,77.49
2023-04-06T04:08:10.878Z,77.18
2023-04-06T04:13:12.284Z,77.00
2023-04-06T04:18:13.715Z,76.81
2023-04-06T04:23:15.138Z,76.85
2023-04-06T04:28:16.555Z,76.97
2023-04-06T04:33:17.970Z,77.11
2023-04-06T04:38:19.404Z,76.92
2023-04-06T04:43:21.077Z,76.95
2023-04-06T04:48:22.573Z,77.17
2023-04-06T04:53:25.154Z,77.15
2023-04-06T04:58:26.707Z,77.20
2023-04-06T05:03:28.364Z,76.77
2023-04-06T05:08:30.018Z,77.21
2023-04-06T05:13:32.276Z,77.34
2023-04-06T05:18:33.732Z,77.18
2023-04-06T05:23:35.491Z,77.42
2023-04-06T05:28:37.377Z,77.25
2023-04-06T05:33:38.866Z,77.19
2023-04-06T05:38:40.277Z,76.70
2023-04-06T05:43:41.675Z,77.17
2023-04-06T05:48:43.112Z,76.92
2023-04-06T05:53:44.579Z,77.11
2023-04-06T05:58:46.046Z,76.50
2023-04-06T06:03:47.461Z,76.45
2023-04-06T06:08:49.146Z,76.52
2023-04-06T06:13:50.623Z,76.41
2023-04-06T06:18:52.030Z,75.97
2023-04-06T06:23:55.021Z,75.64
2023-04-06T06:28:56.816Z,75.55
2023-04-06T06:33:58.261Z,75.19
2023-04-06T06:39:01.567Z,74.43
2023-04-06T06:44:03.369Z,74.47
2023-04-06T06:49:04.825Z,73.82
2023-04-06T06:54:06.797Z,73.71
2023-04-06T06:59:08.821Z,73.12
2023-04-06T07:04:10.604Z,72.76
2023-04-06T07:09:12.498Z,72.44
2023-04-06T07:14:13.999Z,72.29
2023-04-06T07:19:15.429Z,71.97
2023-04-06T07:24:16.936Z,71.85
2023-04-06T07:29:19.071Z,71.06
2023-04-06T07:34:20.641Z,70.46
2023-04-06T07:39:22.081Z,69.21
2023-04-06T07:44:23.761Z,68.45
2023-04-06T07:49:25.187Z,68.21
2023-04-06T07:54:26.664Z,67.49
2023-04-06T07:59:28.214Z,62.73
2023-04-06T08:04:29.693Z,56.33
2023-04-06T08:09:31.335Z,54.63
2023-04-06T08:14:32.745Z,58.39
2023-04-06T08:19:34.209Z,57.80
2023-04-06T08:24:35.903Z,56.05
2023-04-06T08:29:37.441Z,55.08
2023-04-06T08:34:38.906Z,54.86
2023-04-06T08:39:40.356Z,53.38
2023-04-06T08:44:42.302Z,53.41
2023-04-06T08:49:45.779Z,51.03
2023-04-06T08:54:48.335Z,50.66
2023-04-06T08:59:51.282Z,47.86
2023-04-06T09:04:54.879Z,48.85
2023-04-06T09:09:56.364Z,47.37
2023-04-06T09:14:58.773Z,49.31
2023-04-06T09:20:01.872Z,49.75
2023-04-06T09:25:03.548Z,49.97
2023-04-06T09:30:07.141Z,45.05
2023-04-06T09:35:09.752Z,48.65
2023-04-06T09:40:11.699Z,48.12
2023-04-06T09:45:13.980Z,46.79
2023-04-06T09:50:16.934Z,44.27
2023-04-06T09:55:35.329Z,46.13
2023-04-06T10:00:45.902Z,44.20
2023-04-06T10:05:53.233Z,46.71
2023-04-06T10:10:56.641Z,42.78
2023-04-06T10:16:01.343Z,45.06
2023-04-06T10:21:09.987Z,42.53
2023-04-06T10:26:18.200Z,43.79
2023-04-06T10:31:27.328Z,44.77
2023-04-06T10:36:33.712Z,45.23
2023-04-06T10:41:35.926Z,44.19
2023-04-06T10:46:37.349Z,44.13
2023-04-06T10:51:40.064Z,44.11
2023-04-06T10:56:41.489Z,43.76
2023-04-06T11:01:46.264Z,41.34
2023-04-06T11:06:52.133Z,42.42
2023-04-06T11:11:54.382Z,43.29
2023-04-06T11:16:56.087Z,41.50
2023-04-06T11:22:07.197Z,42.00
2023-04-06T11:27:08.777Z,42.55
2023-04-06T11:32:10.421Z,41.84
2023-04-06T11:37:12.802Z,42.81
2023-04-06T11:42:14.335Z,42.41
2023-04-06T11:47:16.013Z,42.37
2023-04-06T11:52:20.802Z,40.67
2023-04-06T11:57:26.348Z,42.25
2023-04-06T12:02:28.082Z,41.58
2023-04-06T12:07:30.846Z,42.47
2023-04-06T12:12:32.719Z,42.08
2023-04-06T12:17:34.212Z,39.89
2023-04-06T12:22:35.689Z,40.97
2023-04-06T12:27:37.115Z,40.28
2023-04-06T12:32:38.531Z,41.54
2023-04-06T12:37:41.137Z,40.23
2023-04-06T12:42:42.732Z,39.81
2023-04-06T12:47:44.285Z,40.24
2023-04-06T12:52:45.779Z,39.85
2023-04-06T12:57:47.360Z,39.96
2023-04-06T13:02:49.052Z,40.51
2023-04-06T13:07:50.643Z,40.90
2023-04-06T13:12:52.063Z,39.41
2023-04-06T13:17:56.316Z,40.67
2023-04-06T13:22:58.042Z,40.59
2023-04-06T13:27:59.881Z,39.89
2023-04-06T13:33:01.891Z,38.43
2023-04-06T13:38:03.578Z,39.06
2023-04-06T13:43:05.039Z,39.69
2023-04-06T13:48:07.038Z,37.97
2023-04-06T13:53:08.461Z,38.48
2023-04-06T13:58:10.268Z,38.73
2023-04-06T14:03:11.850Z,38.83
2023-04-06T14:08:13.550Z,38.45
2023-04-06T14:13:15.000Z,38.51
2023-04-06T14:18:16.940Z,38.56
2023-04-06T14:23:18.351Z,39.76
2023-04-06T14:28:22.051Z,38.28
2023-04-06T14:33:23.467Z,38.96
2023-04-06T14:38:25.009Z,38.55
2023-04-06T14:43:27.028Z,39.32
2023-04-06T14:48:29.051Z,39.62
2023-04-06T14:53:30.608Z,39.83
2023-04-06T14:58:32.135Z,40.21
2023-04-06T15:03:33.709Z,39.58
2023-04-06T15:08:35.393Z,39.92
2023-04-06T15:13:37.066Z,39.70
2023-04-06T15:18:38.472Z,39.82
2023-04-06T15:23:40.044Z,39.79
2023-04-06T15:28:41.797Z,38.75
2023-04-06T15:33:44.770Z,38.68
2023-04-06T15:38:46.573Z,38.89
2023-04-06T15:43:50.091Z,39.57
2023-04-06T15:48:51.834Z,39.48
2023-04-06T15:53:53.379Z,40.13
2023-04-06T15:58:54.896Z,40.49
2023-04-06T16:03:56.374Z,40.41
2023-04-06T16:08:58.041Z,40.27
2023-04-06T16:14:00.158Z,40.22
2023-04-06T16:19:01.941Z,40.50
2023-04-06T16:24:04.597Z,40.47
2023-04-06T16:29:06.506Z,40.98
2023-04-06T16:34:07.966Z,40.92
2023-04-06T16:39:10.099Z,40.98
2023-04-06T16:44:13.073Z,41.23
2023-04-06T16:49:15.893Z,40.61
2023-04-06T16:54:17.598Z,41.29
2023-04-06T16:59:19.075Z,41.65
2023-04-06T17:04:20.794Z,42.21
2023-04-06T17:09:23.635Z,42.07
2023-04-06T17:14:25.993Z,42.58
2023-04-06T17:19:27.488Z,42.59
2023-04-06T17:24:28.946Z,42.59
2023-04-06T17:29:30.422Z,42.86
2023-04-06T17:34:31.876Z,42.92
2023-04-06T17:39:33.333Z,43.23
2023-04-06T17:44:35.316Z,43.62
2023-04-06T17:49:36.733Z,43.75
2023-04-06T17:54:38.158Z,43.92
2023-04-06T17:59:41.709Z,44.20
2023-04-06T18:04:45.540Z,44.48
2023-04-06T18:09:47.254Z,44.64
2023-04-06T18:14:48.746Z,44.66
2023-04-06T18:19:50.280Z,44.83
2023-04-06T18:24:51.718Z,44.89
2023-04-06T18:29:53.562Z,44.40
2023-04-06T18:34:57.486Z,44.97
2023-04-06T18:39:58.915Z,44.92
2023-04-06T18:45:00.636Z,45.03
2023-04-06T18:50:02.374Z,44.88
2023-04-06T18:55:04.143Z,45.18
2023-04-06T19:00:06.289Z,45.05
2023-04-06T19:05:08.322Z,45.42
2023-04-06T19:10:10.487Z,45.37
2023-04-06T19:15:12.239Z,45.50
2023-04-06T19:20:13.660Z,45.72
2023-04-06T19:25:15.328Z,46.00
2023-04-06T19:30:16.780Z,46.14
2023-04-06T19:35:18.256Z,45.83
2023-04-06T19:40:19.755Z,46.37
2023-04-06T19:45:21.244Z,46.49
2023-04-06T19:50:22.713Z,46.39
2023-04-06T19:55:24.130Z,46.56
2023-04-06T20:00:25.657Z,46.74
2023-04-06T20:05:27.073Z,46.70
2023-04-06T20:10:28.521Z,46.64
2023-04-06T20:15:30.807Z,46.85
2023-04-06T20:20:32.363Z,47.10
2023-04-06T20:25:33.811Z,46.97
2023-04-06T20:30:35.591Z,47.10
2023-04-06T20:35:37.373Z,47.24
2023-04-06T20:40:40.003Z,47.14
2023-04-06T20:45:41.638Z,46.97
2023-04-06T20:50:43.080Z,46.86
2023-04-06T20:55:44.910Z,46.81
2023-04-06T21:00:49.501Z,47.46
2023-04-06T21:05:55.844Z,47.36
2023-04-06T21:10:57.334Z,47.05
2023-04-06T21:15:59.702Z,47.11
2023-04-06T21:21:01.156Z,47.20
2023-04-06T21:26:02.704Z,47.34
2023-04-06T21:31:08.735Z,47.43
2023-04-06T21:36:10.282Z,47.15
2023-04-06T21:41:11.762Z,47.03
2023-04-06T21:46:13.220Z,47.30
2023-04-06T21:51:22.100Z,47.68
2023-04-06T21:56:25.420Z,47.74
2023-04-06T22:01:28.524Z,48.01
2023-04-06T22:06:30.273Z,47.84
2023-04-06T22:11:31.720Z,48.12
2023-04-06T22:16:33.483Z,48.28
2023-04-06T22:21:34.998Z,48.38
2023-04-06T22:26:36.483Z,48.37
2023-04-06T22:31:37.971Z,48.25
2023-04-06T22:36:39.429Z,48.61
2023-04-06T22:41:40.893Z,49.02
2023-04-06T22:46:42.431Z,49.33
2023-04-06T22:51:44.717Z,49.67
2023-04-06T22:56:46.173Z,49.80
2023-04-06T23:01:47.661Z,51.31
2023-04-06T23:06:49.154Z,51.95
2023-04-06T23:11:50.719Z,53.36
2023-04-06T23:16:52.164Z,54.80
2023-04-06T23:21:55.994Z,54.82
2023-04-06T23:26:57.509Z,55.40
2023-04-06T23:31:58.994Z,57.05
2023-04-06T23:37:03.410Z,57.23
2023-04-06T23:42:05.168Z,60.27
2023-04-06T23:47:06.689Z,60.63
2023-04-06T23:52:08.132Z,60.77
2023-04-06T23:57:09.543Z,64.06
